sensor_id;sensor_type;location;lat;lon;timestamp;P1;durP1;ratioP1;P2;durP2;ratioP2
75798;SDS011;65035;44.726;37.764;2023-02-28T00:00:14;4.85;;;2.30;;
75798;SDS011;65035;44.726;37.764;2023-02-28T00:01:19;3.30;;;2.17;;
75798;SDS011;65035;44.726;37.764;2023-02-28T00:02:24;3.50;;;2.17;;
75798;SDS011;65035;44.726;37.764;2023-02-28T00:03:29;5.20;;;2.80;;
75798;SDS011;65035;44.726;37.764;2023-02-28T00:04:34;5.03;;;2.45;;
75798;SDS011;65035;44.726;37.764;2023-02-28T00:05:38;3.50;;;2.22;;
75798;SDS011;65035;44.726;37.764;2023-02-28T00:06:42;3.38;;;2.47;;
75798;SDS011;65035;44.726;37.764;2023-02-28T00:07:46;3.63;;;2.30;;
75798;SDS011;65035;44.726;37.764;2023-02-28T00:08:50;3.65;;;2.30;;
75798;SDS011;65035;44.726;37.764;2023-02-28T00:09:57;3.78;;;3.00;;
75798;SDS011;65035;44.726;37.764;2023-02-28T00:11:05;3.78;;;2.15;;
75798;SDS011;65035;44.726;37.764;2023-02-28T00:12:10;3.45;;;2.22;;
75798;SDS011;65035;44.726;37.764;2023-02-28T00:13:14;4.15;;;2.65;;
75798;SDS011;65035;44.726;37.764;2023-02-28T00:14:20;3.55;;;2.17;;
75798;SDS011;65035;44.726;37.764;2023-02-28T00:15:23;4.55;;;2.45;;
75798;SDS011;65035;44.726;37.764;2023-02-28T00:16:27;3.22;;;2.00;;
75798;SDS011;65035;44.726;37.764;2023-02-28T00:17:31;3.85;;;2.25;;
75798;SDS011;65035;44.726;37.764;2023-02-28T00:18:38;3.85;;;2.30;;
75798;SDS011;65035;44.726;37.764;2023-02-28T00:19:43;3.78;;;1.92;;
75798;SDS011;65035;44.726;37.764;2023-02-28T00:20:48;4.43;;;2.20;;
75798;SDS011;65035;44.726;37.764;2023-02-28T00:21:51;5.10;;;2.72;;
75798;SDS011;65035;44.726;37.764;2023-02-28T00:22:55;4.15;;;2.45;;
75798;SDS011;65035;44.726;37.764;2023-02-28T00:23:59;3.95;;;2.22;;
75798;SDS011;65035;44.726;37.764;2023-02-28T00:25:03;4.07;;;2.53;;
75798;SDS011;65035;44.726;37.764;2023-02-28T00:26:09;3.38;;;2.22;;
75798;SDS011;65035;44.726;37.764;2023-02-28T00:27:19;4.60;;;2.65;;
75798;SDS011;65035;44.726;37.764;2023-02-28T00:28:22;4.43;;;2.00;;
75798;SDS011;65035;44.726;37.764;2023-02-28T00:29:33;3.63;;;2.20;;
75798;SDS011;65035;44.726;37.764;2023-02-28T00:30:39;3.55;;;2.38;;
75798;SDS011;65035;44.726;37.764;2023-02-28T00:31:43;3.35;;;1.90;;
75798;SDS011;65035;44.726;37.764;2023-02-28T00:32:47;4.53;;;2.53;;
75798;SDS011;65035;44.726;37.764;2023-02-28T00:33:55;4.15;;;2.40;;
75798;SDS011;65035;44.726;37.764;2023-02-28T00:35:00;4.15;;;2.45;;
75798;SDS011;65035;44.726;37.764;2023-02-28T00:36:07;3.90;;;2.42;;
75798;SDS011;65035;44.726;37.764;2023-02-28T00:37:13;3.92;;;2.13;;
75798;SDS011;65035;44.726;37.764;2023-02-28T00:38:17;3.58;;;2.05;;
75798;SDS011;65035;44.726;37.764;2023-02-28T00:39:21;4.50;;;2.05;;
75798;SDS011;65035;44.726;37.764;2023-02-28T00:40:26;3.65;;;2.25;;
75798;SDS011;65035;44.726;37.764;2023-02-28T00:41:31;4.38;;;2.72;;
75798;SDS011;65035;44.726;37.764;2023-02-28T00:42:34;3.67;;;2.10;;
75798;SDS011;65035;44.726;37.764;2023-02-28T00:43:43;4.25;;;2.80;;
75798;SDS011;65035;44.726;37.764;2023-02-28T00:44:48;3.95;;;1.83;;
75798;SDS011;65035;44.726;37.764;2023-02-28T00:45:52;2.90;;;2.03;;
75798;SDS011;65035;44.726;37.764;2023-02-28T00:46:59;3.80;;;2.28;;
75798;SDS011;65035;44.726;37.764;2023-02-28T00:48:02;3.72;;;2.60;;
75798;SDS011;65035;44.726;37.764;2023-02-28T00:49:06;4.50;;;2.45;;
75798;SDS011;65035;44.726;37.764;2023-02-28T00:50:10;3.88;;;2.17;;
75798;SDS011;65035;44.726;37.764;2023-02-28T00:51:15;4.25;;;1.90;;
75798;SDS011;65035;44.726;37.764;2023-02-28T00:52:21;4.28;;;2.17;;
75798;SDS011;65035;44.726;37.764;2023-02-28T00:53:25;4.28;;;2.47;;
75798;SDS011;65035;44.726;37.764;2023-02-28T00:54:32;2.83;;;2.15;;
75798;SDS011;65035;44.726;37.764;2023-02-28T00:55:36;3.88;;;1.98;;
75798;SDS011;65035;44.726;37.764;2023-02-28T00:56:41;4.18;;;2.30;;
75798;SDS011;65035;44.726;37.764;2023-02-28T00:57:46;4.15;;;2.08;;
75798;SDS011;65035;44.726;37.764;2023-02-28T00:58:50;4.10;;;1.85;;
75798;SDS011;65035;44.726;37.764;2023-02-28T01:00:14;3.75;;;2.30;;
75798;SDS011;65035;44.726;37.764;2023-02-28T01:01:19;3.75;;;2.50;;
75798;SDS011;65035;44.726;37.764;2023-02-28T01:02:23;4.35;;;2.00;;
75798;SDS011;65035;44.726;37.764;2023-02-28T01:03:27;4.22;;;2.42;;
75798;SDS011;65035;44.726;37.764;2023-02-28T01:04:32;4.20;;;2.20;;
75798;SDS011;65035;44.726;37.764;2023-02-28T01:05:37;4.07;;;2.58;;
75798;SDS011;65035;44.726;37.764;2023-02-28T01:06:41;3.88;;;2.47;;
75798;SDS011;65035;44.726;37.764;2023-02-28T01:07:46;2.75;;;1.95;;
75798;SDS011;65035;44.726;37.764;2023-02-28T01:08:50;3.58;;;2.30;;
75798;SDS011;65035;44.726;37.764;2023-02-28T01:09:57;4.05;;;2.38;;
75798;SDS011;65035;44.726;37.764;2023-02-28T01:11:10;4.05;;;2.45;;
75798;SDS011;65035;44.726;37.764;2023-02-28T01:12:16;4.20;;;2.50;;
75798;SDS011;65035;44.726;37.764;2023-02-28T01:13:21;3.70;;;2.42;;
75798;SDS011;65035;44.726;37.764;2023-02-28T01:14:29;3.38;;;2.10;;
75798;SDS011;65035;44.726;37.764;2023-02-28T01:15:33;4.03;;;2.67;;
75798;SDS011;65035;44.726;37.764;2023-02-28T01:16:36;3.45;;;2.28;;
75798;SDS011;65035;44.726;37.764;2023-02-28T01:17:41;3.85;;;2.42;;
75798;SDS011;65035;44.726;37.764;2023-02-28T01:18:46;2.78;;;2.17;;
75798;SDS011;65035;44.726;37.764;2023-02-28T01:19:53;4.75;;;2.65;;
75798;SDS011;65035;44.726;37.764;2023-02-28T01:21:07;3.00;;;2.10;;
75798;SDS011;65035;44.726;37.764;2023-02-28T01:22:14;3.42;;;2.22;;
75798;SDS011;65035;44.726;37.764;2023-02-28T01:23:20;3.13;;;2.03;;
75798;SDS011;65035;44.726;37.764;2023-02-28T01:24:31;4.53;;;2.38;;
75798;SDS011;65035;44.726;37.764;2023-02-28T01:25:38;4.50;;;2.55;;
75798;SDS011;65035;44.726;37.764;2023-02-28T01:26:42;3.45;;;2.10;;
75798;SDS011;65035;44.726;37.764;2023-02-28T01:27:47;3.67;;;2.22;;
75798;SDS011;65035;44.726;37.764;2023-02-28T01:28:53;2.72;;;1.80;;
75798;SDS011;65035;44.726;37.764;2023-02-28T01:29:56;3.50;;;2.25;;
75798;SDS011;65035;44.726;37.764;2023-02-28T01:31:04;3.45;;;2.22;;
75798;SDS011;65035;44.726;37.764;2023-02-28T01:32:07;3.67;;;2.30;;
75798;SDS011;65035;44.726;37.764;2023-02-28T01:33:12;3.42;;;2.22;;
75798;SDS011;65035;44.726;37.764;2023-02-28T01:34:15;3.63;;;2.05;;
75798;SDS011;65035;44.726;37.764;2023-02-28T01:35:19;3.17;;;2.35;;
75798;SDS011;65035;44.726;37.764;2023-02-28T01:36:23;3.72;;;2.45;;
75798;SDS011;65035;44.726;37.764;2023-02-28T01:37:30;4.15;;;2.13;;
75798;SDS011;65035;44.726;37.764;2023-02-28T01:38:33;3.40;;;2.33;;
75798;SDS011;65035;44.726;37.764;2023-02-28T01:39:36;3.38;;;2.35;;
75798;SDS011;65035;44.726;37.764;2023-02-28T01:40:41;4.63;;;1.92;;
75798;SDS011;65035;44.726;37.764;2023-02-28T01:41:46;4.20;;;2.25;;
75798;SDS011;65035;44.726;37.764;2023-02-28T01:42:51;3.50;;;2.38;;
75798;SDS011;65035;44.726;37.764;2023-02-28T01:43:59;3.65;;;2.30;;
75798;SDS011;65035;44.726;37.764;2023-02-28T01:45:26;3.00;;;1.95;;
75798;SDS011;65035;44.726;37.764;2023-02-28T01:46:33;3.28;;;2.20;;
75798;SDS011;65035;44.726;37.764;2023-02-28T01:47:39;3.63;;;2.17;;
75798;SDS011;65035;44.726;37.764;2023-02-28T01:48:54;3.40;;;2.38;;
75798;SDS011;65035;44.726;37.764;2023-02-28T01:50:29;3.22;;;1.85;;
75798;SDS011;65035;44.726;37.764;2023-02-28T01:51:35;3.25;;;2.33;;
75798;SDS011;65035;44.726;37.764;2023-02-28T01:52:50;3.45;;;1.88;;
75798;SDS011;65035;44.726;37.764;2023-02-28T01:53:59;2.97;;;1.55;;
75798;SDS011;65035;44.726;37.764;2023-02-28T01:55:10;3.38;;;1.88;;
75798;SDS011;65035;44.726;37.764;2023-02-28T01:56:17;3.67;;;2.63;;
75798;SDS011;65035;44.726;37.764;2023-02-28T01:57:27;3.60;;;2.35;;
75798;SDS011;65035;44.726;37.764;2023-02-28T01:58:41;4.32;;;2.92;;
75798;SDS011;65035;44.726;37.764;2023-02-28T01:59:49;3.63;;;2.40;;
75798;SDS011;65035;44.726;37.764;2023-02-28T02:00:57;3.47;;;2.10;;
75798;SDS011;65035;44.726;37.764;2023-02-28T02:02:02;4.53;;;1.83;;
75798;SDS011;65035;44.726;37.764;2023-02-28T02:03:08;3.47;;;2.08;;
75798;SDS011;65035;44.726;37.764;2023-02-28T02:04:18;3.53;;;2.15;;
75798;SDS011;65035;44.726;37.764;2023-02-28T02:05:25;3.38;;;2.13;;
75798;SDS011;65035;44.726;37.764;2023-02-28T02:06:40;3.40;;;1.85;;
75798;SDS011;65035;44.726;37.764;2023-02-28T02:07:49;2.83;;;1.88;;
75798;SDS011;65035;44.726;37.764;2023-02-28T02:08:57;3.13;;;1.92;;
75798;SDS011;65035;44.726;37.764;2023-02-28T02:10:48;3.08;;;2.40;;
75798;SDS011;65035;44.726;37.764;2023-02-28T02:11:46;3.08;;;2.20;;
75798;SDS011;65035;44.726;37.764;2023-02-28T02:14:39;3.15;;;1.98;;
75798;SDS011;65035;44.726;37.764;2023-02-28T02:30:50;3.33;;;2.28;;
75798;SDS011;65035;44.726;37.764;2023-02-28T02:35:00;3.30;;;1.80;;
75798;SDS011;65035;44.726;37.764;2023-02-28T02:39:38;4.93;;;2.63;;
75798;SDS011;65035;44.726;37.764;2023-02-28T02:40:47;3.95;;;2.38;;
75798;SDS011;65035;44.726;37.764;2023-02-28T02:41:56;3.90;;;2.25;;
75798;SDS011;65035;44.726;37.764;2023-02-28T02:43:22;2.92;;;2.17;;
75798;SDS011;65035;44.726;37.764;2023-02-28T02:44:37;2.80;;;1.88;;
75798;SDS011;65035;44.726;37.764;2023-02-28T02:45:49;4.25;;;2.33;;
75798;SDS011;65035;44.726;37.764;2023-02-28T02:47:06;3.50;;;2.10;;
75798;SDS011;65035;44.726;37.764;2023-02-28T02:48:13;3.15;;;2.20;;
75798;SDS011;65035;44.726;37.764;2023-02-28T02:49:22;4.28;;;2.35;;
75798;SDS011;65035;44.726;37.764;2023-02-28T02:50:34;3.13;;;1.60;;
75798;SDS011;65035;44.726;37.764;2023-02-28T02:51:43;3.75;;;2.28;;
75798;SDS011;65035;44.726;37.764;2023-02-28T02:52:51;3.53;;;2.08;;
75798;SDS011;65035;44.726;37.764;2023-02-28T02:55:23;3.25;;;2.33;;
75798;SDS011;65035;44.726;37.764;2023-02-28T02:56:28;3.75;;;2.25;;
75798;SDS011;65035;44.726;37.764;2023-02-28T02:57:59;3.45;;;2.42;;
75798;SDS011;65035;44.726;37.764;2023-02-28T02:59:07;4.35;;;2.63;;
75798;SDS011;65035;44.726;37.764;2023-02-28T03:00:16;4.05;;;2.42;;
75798;SDS011;65035;44.726;37.764;2023-02-28T03:01:25;3.80;;;2.10;;
75798;SDS011;65035;44.726;37.764;2023-02-28T03:02:33;3.28;;;1.88;;
75798;SDS011;65035;44.726;37.764;2023-02-28T03:03:40;3.38;;;2.25;;
75798;SDS011;65035;44.726;37.764;2023-02-28T03:04:46;3.70;;;2.00;;
75798;SDS011;65035;44.726;37.764;2023-02-28T03:05:57;3.40;;;1.98;;
75798;SDS011;65035;44.726;37.764;2023-02-28T03:07:01;3.17;;;2.05;;
75798;SDS011;65035;44.726;37.764;2023-02-28T03:08:07;3.35;;;1.92;;
75798;SDS011;65035;44.726;37.764;2023-02-28T03:09:12;3.83;;;2.20;;
75798;SDS011;65035;44.726;37.764;2023-02-28T03:10:31;3.05;;;2.30;;
75798;SDS011;65035;44.726;37.764;2023-02-28T03:11:37;4.00;;;2.15;;
75798;SDS011;65035;44.726;37.764;2023-02-28T03:12:49;4.63;;;2.00;;
75798;SDS011;65035;44.726;37.764;2023-02-28T03:14:09;3.67;;;2.38;;
75798;SDS011;65035;44.726;37.764;2023-02-28T03:15:26;3.67;;;1.70;;
75798;SDS011;65035;44.726;37.764;2023-02-28T03:16:35;3.83;;;1.80;;
75798;SDS011;65035;44.726;37.764;2023-02-28T03:20:48;3.30;;;2.25;;
75798;SDS011;65035;44.726;37.764;2023-02-28T03:24:04;3.30;;;1.85;;
75798;SDS011;65035;44.726;37.764;2023-02-28T03:25:21;3.63;;;1.73;;
75798;SDS011;65035;44.726;37.764;2023-02-28T03:26:34;3.17;;;1.98;;
75798;SDS011;65035;44.726;37.764;2023-02-28T03:27:49;2.97;;;1.70;;
75798;SDS011;65035;44.726;37.764;2023-02-28T03:29:24;3.45;;;1.98;;
75798;SDS011;65035;44.726;37.764;2023-02-28T03:31:53;2.85;;;1.55;;
75798;SDS011;65035;44.726;37.764;2023-02-28T03:33:10;3.47;;;2.10;;
75798;SDS011;65035;44.726;37.764;2023-02-28T03:36:43;3.25;;;1.88;;
75798;SDS011;65035;44.726;37.764;2023-02-28T03:38:03;3.42;;;1.67;;
75798;SDS011;65035;44.726;37.764;2023-02-28T03:39:24;2.58;;;1.58;;
75798;SDS011;65035;44.726;37.764;2023-02-28T03:40:49;3.17;;;1.77;;
75798;SDS011;65035;44.726;37.764;2023-02-28T03:42:00;2.42;;;1.58;;
75798;SDS011;65035;44.726;37.764;2023-02-28T03:43:09;3.88;;;1.67;;
75798;SDS011;65035;44.726;37.764;2023-02-28T03:44:25;2.40;;;1.30;;
75798;SDS011;65035;44.726;37.764;2023-02-28T03:45:47;4.18;;;1.83;;
75798;SDS011;65035;44.726;37.764;2023-02-28T03:46:55;2.67;;;1.45;;
75798;SDS011;65035;44.726;37.764;2023-02-28T03:48:05;3.30;;;1.50;;
75798;SDS011;65035;44.726;37.764;2023-02-28T03:49:30;3.22;;;2.25;;
75798;SDS011;65035;44.726;37.764;2023-02-28T03:50:40;3.03;;;1.52;;
75798;SDS011;65035;44.726;37.764;2023-02-28T03:51:47;2.88;;;1.70;;
75798;SDS011;65035;44.726;37.764;2023-02-28T03:52:58;3.10;;;2.00;;
75798;SDS011;65035;44.726;37.764;2023-02-28T03:54:10;4.25;;;2.00;;
75798;SDS011;65035;44.726;37.764;2023-02-28T03:55:18;3.08;;;2.22;;
75798;SDS011;65035;44.726;37.764;2023-02-28T03:56:30;3.85;;;1.88;;
75798;SDS011;65035;44.726;37.764;2023-02-28T03:59:07;3.20;;;1.75;;
75798;SDS011;65035;44.726;37.764;2023-02-28T04:00:19;3.75;;;2.63;;
75798;SDS011;65035;44.726;37.764;2023-02-28T04:02:40;3.67;;;1.95;;
75798;SDS011;65035;44.726;37.764;2023-02-28T04:03:44;3.38;;;1.98;;
75798;SDS011;65035;44.726;37.764;2023-02-28T04:04:47;4.40;;;2.47;;
75798;SDS011;65035;44.726;37.764;2023-02-28T04:05:52;3.33;;;1.80;;
75798;SDS011;65035;44.726;37.764;2023-02-28T04:07:03;2.75;;;1.77;;
75798;SDS011;65035;44.726;37.764;2023-02-28T04:08:09;3.10;;;1.98;;
75798;SDS011;65035;44.726;37.764;2023-02-28T04:09:14;2.97;;;1.73;;
75798;SDS011;65035;44.726;37.764;2023-02-28T04:10:18;3.53;;;1.63;;
75798;SDS011;65035;44.726;37.764;2023-02-28T04:12:39;3.42;;;1.70;;
75798;SDS011;65035;44.726;37.764;2023-02-28T04:13:44;2.55;;;1.73;;
75798;SDS011;65035;44.726;37.764;2023-02-28T04:14:49;6.35;;;2.33;;
75798;SDS011;65035;44.726;37.764;2023-02-28T04:15:54;6.30;;;2.13;;
75798;SDS011;65035;44.726;37.764;2023-02-28T04:16:58;7.18;;;1.88;;
75798;SDS011;65035;44.726;37.764;2023-02-28T04:18:02;12.60;;;3.15;;
75798;SDS011;65035;44.726;37.764;2023-02-28T04:19:07;11.70;;;3.67;;
75798;SDS011;65035;44.726;37.764;2023-02-28T04:20:13;7.78;;;2.47;;
75798;SDS011;65035;44.726;37.764;2023-02-28T04:21:17;11.23;;;3.30;;
75798;SDS011;65035;44.726;37.764;2023-02-28T04:22:25;18.25;;;3.92;;
75798;SDS011;65035;44.726;37.764;2023-02-28T04:23:30;22.23;;;6.25;;
75798;SDS011;65035;44.726;37.764;2023-02-28T04:24:35;24.30;;;5.65;;
75798;SDS011;65035;44.726;37.764;2023-02-28T04:25:39;25.77;;;7.18;;
75798;SDS011;65035;44.726;37.764;2023-02-28T04:26:45;34.88;;;6.65;;
75798;SDS011;65035;44.726;37.764;2023-02-28T04:27:50;22.75;;;6.25;;
75798;SDS011;65035;44.726;37.764;2023-02-28T04:28:55;30.10;;;6.15;;
75798;SDS011;65035;44.726;37.764;2023-02-28T04:29:59;25.40;;;6.18;;
75798;SDS011;65035;44.726;37.764;2023-02-28T04:31:04;22.35;;;6.38;;
75798;SDS011;65035;44.726;37.764;2023-02-28T04:32:09;26.02;;;6.68;;
75798;SDS011;65035;44.726;37.764;2023-02-28T04:33:14;25.92;;;5.90;;
75798;SDS011;65035;44.726;37.764;2023-02-28T04:34:16;23.05;;;5.90;;
75798;SDS011;65035;44.726;37.764;2023-02-28T04:35:22;23.67;;;6.03;;
75798;SDS011;65035;44.726;37.764;2023-02-28T04:36:27;28.65;;;6.28;;
75798;SDS011;65035;44.726;37.764;2023-02-28T04:37:33;21.90;;;5.72;;
75798;SDS011;65035;44.726;37.764;2023-02-28T04:38:38;29.25;;;6.18;;
75798;SDS011;65035;44.726;37.764;2023-02-28T04:39:41;23.23;;;5.93;;
75798;SDS011;65035;44.726;37.764;2023-02-28T04:40:44;24.60;;;5.60;;
75798;SDS011;65035;44.726;37.764;2023-02-28T04:41:49;24.95;;;5.63;;
75798;SDS011;65035;44.726;37.764;2023-02-28T04:42:54;23.17;;;5.68;;
75798;SDS011;65035;44.726;37.764;2023-02-28T04:43:59;18.13;;;5.53;;
75798;SDS011;65035;44.726;37.764;2023-02-28T04:45:03;20.85;;;4.93;;
75798;SDS011;65035;44.726;37.764;2023-02-28T04:46:07;21.67;;;5.78;;
75798;SDS011;65035;44.726;37.764;2023-02-28T04:47:12;19.88;;;5.75;;
75798;SDS011;65035;44.726;37.764;2023-02-28T04:48:16;17.48;;;5.50;;
75798;SDS011;65035;44.726;37.764;2023-02-28T04:49:23;17.75;;;4.20;;
75798;SDS011;65035;44.726;37.764;2023-02-28T04:50:27;18.67;;;5.75;;
75798;SDS011;65035;44.726;37.764;2023-02-28T04:51:31;19.27;;;5.25;;
75798;SDS011;65035;44.726;37.764;2023-02-28T04:52:35;21.17;;;5.93;;
75798;SDS011;65035;44.726;37.764;2023-02-28T04:53:40;17.67;;;4.53;;
75798;SDS011;65035;44.726;37.764;2023-02-28T04:54:44;22.42;;;5.68;;
75798;SDS011;65035;44.726;37.764;2023-02-28T04:55:49;18.45;;;4.93;;
75798;SDS011;65035;44.726;37.764;2023-02-28T04:56:52;17.98;;;4.80;;
75798;SDS011;65035;44.726;37.764;2023-02-28T04:57:57;22.30;;;4.53;;
75798;SDS011;65035;44.726;37.764;2023-02-28T04:59:02;17.52;;;4.70;;
75798;SDS011;65035;44.726;37.764;2023-02-28T05:00:09;12.40;;;4.70;;
75798;SDS011;65035;44.726;37.764;2023-02-28T05:02:21;14.50;;;4.70;;
75798;SDS011;65035;44.726;37.764;2023-02-28T05:03:27;13.57;;;4.30;;
75798;SDS011;65035;44.726;37.764;2023-02-28T05:04:33;19.17;;;4.68;;
75798;SDS011;65035;44.726;37.764;2023-02-28T05:05:38;17.88;;;4.82;;
75798;SDS011;65035;44.726;37.764;2023-02-28T05:06:42;13.25;;;4.63;;
75798;SDS011;65035;44.726;37.764;2023-02-28T05:07:46;15.27;;;3.97;;
75798;SDS011;65035;44.726;37.764;2023-02-28T05:08:51;15.60;;;4.22;;
75798;SDS011;65035;44.726;37.764;2023-02-28T05:09:57;17.13;;;4.25;;
75798;SDS011;65035;44.726;37.764;2023-02-28T05:11:00;13.80;;;4.10;;
75798;SDS011;65035;44.726;37.764;2023-02-28T05:12:05;17.48;;;4.60;;
75798;SDS011;65035;44.726;37.764;2023-02-28T05:13:12;13.35;;;4.30;;
75798;SDS011;65035;44.726;37.764;2023-02-28T05:14:17;17.08;;;4.53;;
75798;SDS011;65035;44.726;37.764;2023-02-28T05:15:22;12.43;;;4.57;;
75798;SDS011;65035;44.726;37.764;2023-02-28T05:16:27;15.75;;;4.43;;
75798;SDS011;65035;44.726;37.764;2023-02-28T05:17:32;11.77;;;3.33;;
75798;SDS011;65035;44.726;37.764;2023-02-28T05:18:36;11.93;;;4.70;;
75798;SDS011;65035;44.726;37.764;2023-02-28T05:19:40;16.48;;;3.50;;
75798;SDS011;65035;44.726;37.764;2023-02-28T05:20:45;14.45;;;4.00;;
75798;SDS011;65035;44.726;37.764;2023-02-28T05:21:51;13.65;;;3.92;;
75798;SDS011;65035;44.726;37.764;2023-02-28T05:22:58;13.77;;;3.80;;
75798;SDS011;65035;44.726;37.764;2023-02-28T05:24:09;12.02;;;3.28;;
75798;SDS011;65035;44.726;37.764;2023-02-28T05:25:15;11.52;;;3.53;;
75798;SDS011;65035;44.726;37.764;2023-02-28T05:26:23;14.73;;;4.50;;
75798;SDS011;65035;44.726;37.764;2023-02-28T05:27:28;13.15;;;3.47;;
75798;SDS011;65035;44.726;37.764;2023-02-28T05:28:32;14.40;;;3.63;;
75798;SDS011;65035;44.726;37.764;2023-02-28T05:29:37;13.23;;;2.92;;
75798;SDS011;65035;44.726;37.764;2023-02-28T05:30:45;11.70;;;3.00;;
75798;SDS011;65035;44.726;37.764;2023-02-28T05:31:51;12.57;;;3.78;;
75798;SDS011;65035;44.726;37.764;2023-02-28T05:32:56;12.05;;;3.40;;
75798;SDS011;65035;44.726;37.764;2023-02-28T05:34:00;13.10;;;3.45;;
75798;SDS011;65035;44.726;37.764;2023-02-28T05:35:09;11.13;;;2.75;;
75798;SDS011;65035;44.726;37.764;2023-02-28T05:36:15;10.68;;;2.95;;
75798;SDS011;65035;44.726;37.764;2023-02-28T05:37:20;13.18;;;3.00;;
75798;SDS011;65035;44.726;37.764;2023-02-28T05:38:23;13.13;;;3.08;;
75798;SDS011;65035;44.726;37.764;2023-02-28T05:39:28;11.15;;;3.15;;
75798;SDS011;65035;44.726;37.764;2023-02-28T05:40:31;13.27;;;3.72;;
75798;SDS011;65035;44.726;37.764;2023-02-28T05:41:35;11.27;;;3.42;;
75798;SDS011;65035;44.726;37.764;2023-02-28T05:42:40;11.13;;;3.78;;
75798;SDS011;65035;44.726;37.764;2023-02-28T05:43:43;10.75;;;3.42;;
75798;SDS011;65035;44.726;37.764;2023-02-28T05:44:48;10.55;;;2.85;;
75798;SDS011;65035;44.726;37.764;2023-02-28T05:45:52;11.38;;;3.13;;
75798;SDS011;65035;44.726;37.764;2023-02-28T05:46:56;11.23;;;3.08;;
75798;SDS011;65035;44.726;37.764;2023-02-28T05:48:01;12.48;;;2.75;;
75798;SDS011;65035;44.726;37.764;2023-02-28T05:49:05;8.98;;;2.92;;
75798;SDS011;65035;44.726;37.764;2023-02-28T05:50:09;10.23;;;3.08;;
75798;SDS011;65035;44.726;37.764;2023-02-28T05:51:14;8.82;;;2.88;;
75798;SDS011;65035;44.726;37.764;2023-02-28T05:52:19;12.35;;;2.85;;
75798;SDS011;65035;44.726;37.764;2023-02-28T05:53:24;7.85;;;2.65;;
75798;SDS011;65035;44.726;37.764;2023-02-28T05:54:28;9.00;;;2.80;;
75798;SDS011;65035;44.726;37.764;2023-02-28T05:55:32;9.95;;;3.08;;
75798;SDS011;65035;44.726;37.764;2023-02-28T05:56:39;8.40;;;3.50;;
75798;SDS011;65035;44.726;37.764;2023-02-28T05:57:44;9.27;;;3.22;;
75798;SDS011;65035;44.726;37.764;2023-02-28T05:58:49;10.18;;;2.65;;
75798;SDS011;65035;44.726;37.764;2023-02-28T05:59:54;9.82;;;2.85;;
75798;SDS011;65035;44.726;37.764;2023-02-28T06:00:58;8.82;;;2.83;;
75798;SDS011;65035;44.726;37.764;2023-02-28T06:02:02;9.15;;;2.97;;
75798;SDS011;65035;44.726;37.764;2023-02-28T06:03:06;8.73;;;3.35;;
75798;SDS011;65035;44.726;37.764;2023-02-28T06:04:11;8.85;;;2.63;;
75798;SDS011;65035;44.726;37.764;2023-02-28T06:05:31;9.85;;;3.15;;
75798;SDS011;65035;44.726;37.764;2023-02-28T06:06:35;10.32;;;3.20;;
75798;SDS011;65035;44.726;37.764;2023-02-28T06:07:40;9.07;;;2.60;;
75798;SDS011;65035;44.726;37.764;2023-02-28T06:08:45;8.30;;;2.75;;
75798;SDS011;65035;44.726;37.764;2023-02-28T06:09:48;8.00;;;2.92;;
75798;SDS011;65035;44.726;37.764;2023-02-28T06:10:57;8.75;;;2.40;;
75798;SDS011;65035;44.726;37.764;2023-02-28T06:12:01;8.70;;;2.88;;
75798;SDS011;65035;44.726;37.764;2023-02-28T06:13:07;10.07;;;2.75;;
75798;SDS011;65035;44.726;37.764;2023-02-28T06:14:16;11.85;;;2.58;;
75798;SDS011;65035;44.726;37.764;2023-02-28T06:15:22;9.13;;;2.85;;
75798;SDS011;65035;44.726;37.764;2023-02-28T06:16:29;10.32;;;2.95;;
75798;SDS011;65035;44.726;37.764;2023-02-28T06:17:36;8.95;;;2.38;;
75798;SDS011;65035;44.726;37.764;2023-02-28T06:18:39;8.05;;;2.75;;
75798;SDS011;65035;44.726;37.764;2023-02-28T06:19:43;7.40;;;2.22;;
75798;SDS011;65035;44.726;37.764;2023-02-28T06:20:53;9.05;;;3.03;;
75798;SDS011;65035;44.726;37.764;2023-02-28T06:21:58;6.43;;;2.53;;
75798;SDS011;65035;44.726;37.764;2023-02-28T06:23:03;7.90;;;2.58;;
75798;SDS011;65035;44.726;37.764;2023-02-28T06:24:08;6.88;;;1.95;;
75798;SDS011;65035;44.726;37.764;2023-02-28T06:25:13;7.78;;;2.60;;
75798;SDS011;65035;44.726;37.764;2023-02-28T06:26:17;7.47;;;1.70;;
75798;SDS011;65035;44.726;37.764;2023-02-28T06:27:21;6.15;;;2.15;;
75798;SDS011;65035;44.726;37.764;2023-02-28T06:28:26;8.70;;;3.17;;
75798;SDS011;65035;44.726;37.764;2023-02-28T06:29:33;7.57;;;2.25;;
75798;SDS011;65035;44.726;37.764;2023-02-28T06:30:40;7.10;;;2.08;;
75798;SDS011;65035;44.726;37.764;2023-02-28T06:31:47;6.05;;;2.90;;
75798;SDS011;65035;44.726;37.764;2023-02-28T06:32:52;9.02;;;2.97;;
75798;SDS011;65035;44.726;37.764;2023-02-28T06:33:56;7.40;;;2.15;;
75798;SDS011;65035;44.726;37.764;2023-02-28T06:35:00;8.02;;;3.10;;
75798;SDS011;65035;44.726;37.764;2023-02-28T06:36:06;7.88;;;2.55;;
75798;SDS011;65035;44.726;37.764;2023-02-28T06:37:10;6.97;;;2.05;;
75798;SDS011;65035;44.726;37.764;2023-02-28T06:38:14;6.45;;;2.17;;
75798;SDS011;65035;44.726;37.764;2023-02-28T06:39:19;8.55;;;2.22;;
75798;SDS011;65035;44.726;37.764;2023-02-28T06:40:24;7.75;;;2.08;;
75798;SDS011;65035;44.726;37.764;2023-02-28T06:41:29;7.72;;;2.65;;
75798;SDS011;65035;44.726;37.764;2023-02-28T06:42:48;6.80;;;2.50;;
75798;SDS011;65035;44.726;37.764;2023-02-28T06:43:56;9.38;;;2.30;;
75798;SDS011;65035;44.726;37.764;2023-02-28T06:45:01;5.75;;;1.77;;
75798;SDS011;65035;44.726;37.764;2023-02-28T06:46:10;7.15;;;1.83;;
75798;SDS011;65035;44.726;37.764;2023-02-28T06:47:16;5.00;;;1.48;;
75798;SDS011;65035;44.726;37.764;2023-02-28T06:48:21;7.95;;;2.35;;
75798;SDS011;65035;44.726;37.764;2023-02-28T06:49:26;7.38;;;2.05;;
75798;SDS011;65035;44.726;37.764;2023-02-28T06:50:31;5.70;;;1.73;;
75798;SDS011;65035;44.726;37.764;2023-02-28T06:51:40;7.30;;;1.80;;
75798;SDS011;65035;44.726;37.764;2023-02-28T06:52:48;6.53;;;1.90;;
75798;SDS011;65035;44.726;37.764;2023-02-28T06:53:56;10.15;;;2.33;;
75798;SDS011;65035;44.726;37.764;2023-02-28T06:55:01;5.03;;;1.50;;
75798;SDS011;65035;44.726;37.764;2023-02-28T06:56:08;7.25;;;1.98;;
75798;SDS011;65035;44.726;37.764;2023-02-28T06:57:12;6.35;;;1.75;;
75798;SDS011;65035;44.726;37.764;2023-02-28T06:58:16;7.22;;;2.05;;
75798;SDS011;65035;44.726;37.764;2023-02-28T06:59:23;5.20;;;1.67;;
75798;SDS011;65035;44.726;37.764;2023-02-28T07:00:26;6.00;;;1.88;;
75798;SDS011;65035;44.726;37.764;2023-02-28T07:01:31;8.65;;;2.33;;
75798;SDS011;65035;44.726;37.764;2023-02-28T07:02:38;6.50;;;2.00;;
75798;SDS011;65035;44.726;37.764;2023-02-28T07:03:42;7.72;;;1.65;;
75798;SDS011;65035;44.726;37.764;2023-02-28T07:04:47;6.65;;;1.95;;
75798;SDS011;65035;44.726;37.764;2023-02-28T07:05:51;4.93;;;1.65;;
75798;SDS011;65035;44.726;37.764;2023-02-28T07:06:55;7.20;;;2.30;;
75798;SDS011;65035;44.726;37.764;2023-02-28T07:08:00;6.57;;;1.77;;
75798;SDS011;65035;44.726;37.764;2023-02-28T07:09:05;5.75;;;1.55;;
75798;SDS011;65035;44.726;37.764;2023-02-28T07:10:10;6.25;;;2.33;;
75798;SDS011;65035;44.726;37.764;2023-02-28T07:11:16;5.57;;;2.53;;
75798;SDS011;65035;44.726;37.764;2023-02-28T07:12:20;5.40;;;1.98;;
75798;SDS011;65035;44.726;37.764;2023-02-28T07:13:23;4.63;;;1.42;;
75798;SDS011;65035;44.726;37.764;2023-02-28T07:14:29;5.45;;;2.33;;